createdAt,value
2023-02-01T00:00:02.583Z,1006.60
2023-02-01T00:01:02.572Z,1006.60
2023-02-01T00:02:02.555Z,1006.66
2023-02-01T00:03:02.547Z,1006.66
2023-02-01T00:04:02.625Z,1006.67
2023-02-01T00:05:02.524Z,1006.67
2023-02-01T00:06:02.509Z,1006.65
2023-02-01T00:07:02.491Z,1006.75
2023-02-01T00:08:02.476Z,1006.74
2023-02-01T00:09:02.481Z,1006.73
2023-02-01T00:10:02.462Z,1006.76
2023-02-01T00:11:02.442Z,1006.80
2023-02-01T00:12:02.439Z,1006.71
2023-02-01T00:13:02.407Z,1006.73
2023-02-01T00:14:02.412Z,1006.75
2023-02-01T00:15:02.419Z,1006.75
2023-02-01T00:16:02.379Z,1006.80
2023-02-01T00:17:02.357Z,1006.72
2023-02-01T00:18:02.346Z,1006.67
2023-02-01T00:19:02.354Z,1006.68
2023-02-01T00:20:02.329Z,1006.71
2023-02-01T00:21:02.306Z,1006.73
2023-02-01T00:22:02.291Z,1006.80
2023-02-01T00:23:02.284Z,1006.70
2023-02-01T00:24:02.289Z,1006.66
2023-02-01T00:25:02.258Z,1006.67
2023-02-01T00:26:02.239Z,1006.69
2023-02-01T00:27:02.228Z,1006.72
2023-02-01T00:28:02.215Z,1006.78
2023-02-01T00:29:02.200Z,1006.72
2023-02-01T00:30:02.198Z,1006.71
2023-02-01T00:31:02.332Z,1006.71
2023-02-01T00:32:02.336Z,1006.73
2023-02-01T00:33:02.150Z,1006.70
2023-02-01T00:34:02.136Z,1006.79
2023-02-01T00:35:02.136Z,1006.72
2023-02-01T00:36:02.121Z,1006.68
2023-02-01T00:37:02.095Z,1006.69
2023-02-01T00:38:02.083Z,1006.70
2023-02-01T00:39:02.089Z,1006.67
2023-02-01T00:40:02.078Z,1006.61
2023-02-01T00:41:02.044Z,1006.58
2023-02-01T00:42:02.037Z,1006.60
2023-02-01T00:43:02.024Z,1006.53
2023-02-01T00:44:02.007Z,1006.67
2023-02-01T00:45:02.010Z,1006.62
2023-02-01T00:46:02.000Z,1006.56
2023-02-01T00:47:01.990Z,1006.62
2023-02-01T00:48:01.954Z,1006.60
2023-02-01T00:49:01.946Z,1006.64
2023-02-01T00:50:01.961Z,1006.70
2023-02-01T00:51:01.944Z,1006.70
2023-02-01T00:52:01.907Z,1006.70
2023-02-01T00:53:01.890Z,1006.61
2023-02-01T00:54:01.895Z,1006.66
2023-02-01T00:55:01.887Z,1006.65
2023-02-01T00:56:01.846Z,1006.62
2023-02-01T00:57:01.841Z,1006.55
2023-02-01T00:58:01.825Z,1006.53
2023-02-01T00:59:01.810Z,1006.56
2023-02-01T01:00:01.855Z,1006.57
2023-02-01T01:01:01.881Z,1006.62
2023-02-01T01:02:01.813Z,1006.64
2023-02-01T01:03:01.787Z,1006.70
2023-02-01T01:04:01.799Z,1006.72
2023-02-01T01:05:01.744Z,1006.74
2023-02-01T01:06:01.717Z,1006.75
2023-02-01T01:07:01.703Z,1006.70
2023-02-01T01:08:01.694Z,1006.76
2023-02-01T01:09:01.705Z,1006.75
2023-02-01T01:10:01.723Z,1006.69
2023-02-01T01:11:01.648Z,1006.68
2023-02-01T01:12:01.637Z,1006.72
2023-02-01T01:13:01.626Z,1006.70
2023-02-01T01:14:01.614Z,1006.71
2023-02-01T01:15:01.617Z,1006.65
2023-02-01T01:16:01.656Z,1006.64
2023-02-01T01:17:01.580Z,1006.58
2023-02-01T01:18:01.580Z,1006.57
2023-02-01T01:19:01.570Z,1006.55
2023-02-01T01:20:01.559Z,1006.46
2023-02-01T01:21:01.524Z,1006.48
2023-02-01T01:22:01.523Z,1006.44
2023-02-01T01:23:01.539Z,1006.51
2023-02-01T01:24:01.485Z,1006.54
2023-02-01T01:25:01.484Z,1006.62
2023-02-01T01:26:01.471Z,1006.59
2023-02-01T01:27:01.457Z,1006.64
2023-02-01T01:28:01.435Z,1006.67
2023-02-01T01:29:01.433Z,1006.59
2023-02-01T01:30:01.409Z,1006.57
2023-02-01T01:31:01.519Z,1006.51
2023-02-01T01:32:01.383Z,1006.58
2023-02-01T01:33:01.384Z,1006.60
2023-02-01T01:34:01.366Z,1006.62
2023-02-01T01:35:01.364Z,1006.66
2023-02-01T01:36:01.346Z,1006.56
2023-02-01T01:37:01.318Z,1006.59
2023-02-01T01:38:01.306Z,1006.59
2023-02-01T01:39:01.296Z,1006.53
2023-02-01T01:40:01.275Z,1006.46
2023-02-01T01:41:01.277Z,1006.50
2023-02-01T01:42:01.263Z,1006.46
2023-02-01T01:43:01.238Z,1006.50
2023-02-01T01:44:01.227Z,1006.43
2023-02-01T01:45:01.225Z,1006.39
2023-02-01T01:46:01.215Z,1006.45
2023-02-01T01:47:01.281Z,1006.45
2023-02-01T01:48:01.172Z,1006.40
2023-02-01T01:49:01.165Z,1006.35
2023-02-01T01:50:01.147Z,1006.31
2023-02-01T01:51:01.173Z,1006.31
2023-02-01T01:52:01.128Z,1006.34
2023-02-01T01:53:01.105Z,1006.25
2023-02-01T01:54:01.100Z,1006.27
2023-02-01T01:55:01.088Z,1006.28
2023-02-01T01:56:01.097Z,1006.28
2023-02-01T01:57:01.060Z,1006.27
2023-02-01T01:58:01.053Z,1006.19
2023-02-01T01:59:01.034Z,1006.20
2023-02-01T02:00:01.019Z,1006.24
2023-02-01T02:01:01.121Z,1006.23
2023-02-01T02:02:01.054Z,1006.19
2023-02-01T02:03:00.979Z,1006.22
2023-02-01T02:04:00.978Z,1006.14
2023-02-01T02:05:00.949Z,1006.18
2023-02-01T02:06:00.952Z,1006.18
2023-02-01T02:07:00.958Z,1006.19
2023-02-01T02:08:00.914Z,1006.18
2023-02-01T02:09:00.918Z,1006.16
2023-02-01T02:10:01.610Z,1006.14
2023-02-01T02:11:00.901Z,1006.18
2023-02-01T02:12:00.863Z,1006.14
2023-02-01T02:13:00.849Z,1005.98
2023-02-01T02:14:00.835Z,1005.98
2023-02-01T02:15:00.841Z,1005.97
2023-02-01T02:16:00.880Z,1005.96
2023-02-01T02:17:00.803Z,1005.92
2023-02-01T02:18:00.779Z,1005.86
2023-02-01T02:19:00.784Z,1005.76
2023-02-01T02:20:00.783Z,1005.74
2023-02-01T02:21:00.760Z,1005.78
2023-02-01T02:22:00.731Z,1005.82
2023-02-01T02:23:00.739Z,1005.78
2023-02-01T02:24:00.717Z,1005.86
2023-02-01T02:25:00.698Z,1005.82
2023-02-01T02:26:00.702Z,1005.76
2023-02-01T02:27:00.665Z,1005.76
2023-02-01T02:28:00.661Z,1005.77
2023-02-01T02:29:00.642Z,1005.66
2023-02-01T02:30:00.636Z,1005.67
2023-02-01T02:31:00.665Z,1005.64
2023-02-01T02:32:00.599Z,1005.67
2023-02-01T02:33:00.586Z,1005.70
2023-02-01T02:34:00.574Z,1005.72
2023-02-01T02:35:00.563Z,1005.74
2023-02-01T02:36:00.566Z,1005.79
2023-02-01T02:37:00.533Z,1005.79
2023-02-01T02:38:00.525Z,1005.74
2023-02-01T02:39:00.529Z,1005.81
2023-02-01T02:40:00.514Z,1005.77
2023-02-01T02:41:00.498Z,1005.89
2023-02-01T02:42:00.473Z,1005.90
2023-02-01T02:43:00.462Z,1005.84
2023-02-01T02:44:00.480Z,1005.88
2023-02-01T02:45:00.433Z,1005.93
2023-02-01T02:46:00.514Z,1005.94
2023-02-01T02:47:00.413Z,1005.93
2023-02-01T02:48:00.399Z,1005.99
2023-02-01T02:49:00.377Z,1006.02
2023-02-01T02:50:00.368Z,1006.08
2023-02-01T02:51:00.364Z,1006.07
2023-02-01T02:52:00.340Z,1006.01
2023-02-01T02:53:00.328Z,1006.10
2023-02-01T02:54:00.340Z,1006.07
2023-02-01T02:55:00.319Z,1006.13
2023-02-01T02:56:00.330Z,1006.04
2023-02-01T02:57:00.284Z,1006.07
2023-02-01T02:58:00.262Z,1006.12
2023-02-01T02:59:00.247Z,1006.11
2023-02-01T03:00:00.236Z,1006.08
2023-02-01T03:01:00.248Z,1006.09
2023-02-01T03:02:00.228Z,1006.10
2023-02-01T03:03:00.263Z,1006.05
2023-02-01T03:04:00.186Z,1006.06
2023-02-01T03:05:00.168Z,1006.03
2023-02-01T03:06:00.171Z,1006.03
2023-02-01T03:07:00.160Z,1006.03
2023-02-01T03:08:00.171Z,1006.03
2023-02-01T03:09:00.122Z,1005.98
2023-02-01T03:10:00.139Z,1005.97
2023-02-01T03:11:00.137Z,1005.91
2023-02-01T03:12:00.127Z,1005.95
2023-02-01T03:13:00.074Z,1005.88
2023-02-01T03:14:00.063Z,1005.91
2023-02-01T03:15:00.045Z,1005.93
2023-02-01T03:16:00.035Z,1005.85
2023-02-01T03:17:00.031Z,1005.84
2023-02-01T03:18:00.004Z,1005.86
2023-02-01T03:18:59.985Z,1005.87
2023-02-01T03:19:59.983Z,1005.79
2023-02-01T03:20:59.963Z,1005.85
2023-02-01T03:21:59.970Z,1005.78
2023-02-01T03:22:59.946Z,1005.78
2023-02-01T03:23:59.922Z,1005.81
2023-02-01T03:24:59.910Z,1005.80
2023-02-01T03:25:59.903Z,1005.75
2023-02-01T03:26:59.933Z,1005.74
2023-02-01T03:27:59.873Z,1005.71
2023-02-01T03:28:59.856Z,1005.79
2023-02-01T03:29:59.845Z,1005.73
2023-02-01T03:30:59.879Z,1005.75
2023-02-01T03:31:59.957Z,1005.76
2023-02-01T03:32:59.806Z,1005.74
2023-02-01T03:33:59.796Z,1005.75
2023-02-01T03:34:59.781Z,1005.77
2023-02-01T03:35:59.774Z,1005.77
2023-02-01T03:36:59.762Z,1005.82
2023-02-01T03:37:59.742Z,1005.73
2023-02-01T03:38:59.725Z,1005.71
2023-02-01T03:39:59.750Z,1005.62
2023-02-01T03:40:59.721Z,1005.62
2023-02-01T03:41:59.725Z,1005.67
2023-02-01T03:42:59.698Z,1005.70
2023-02-01T03:43:59.672Z,1005.64
2023-02-01T03:44:59.651Z,1005.69
2023-02-01T03:45:59.701Z,1005.70
2023-02-01T03:46:59.683Z,1005.70
2023-02-01T03:47:59.616Z,1005.65
2023-02-01T03:48:59.597Z,1005.64
2023-02-01T03:49:59.588Z,1005.67
2023-02-01T03:50:59.568Z,1005.75
2023-02-01T03:51:59.604Z,1005.70
2023-02-01T03:52:59.559Z,1005.69
2023-02-01T03:53:59.531Z,1005.73
2023-02-01T03:54:59.585Z,1005.70
2023-02-01T03:55:59.523Z,1005.74
2023-02-01T03:56:59.493Z,1005.68
2023-02-01T03:57:59.498Z,1005.65
2023-02-01T03:58:59.528Z,1005.65
2023-02-01T03:59:59.462Z,1005.67
2023-02-01T04:00:59.477Z,1005.66
2023-02-01T04:01:59.434Z,1005.63
2023-02-01T04:02:59.431Z,1005.58
2023-02-01T04:03:59.416Z,1005.59
2023-02-01T04:04:59.404Z,1005.58
2023-02-01T04:05:59.400Z,1005.57
2023-02-01T04:06:59.362Z,1005.49
2023-02-01T04:07:59.363Z,1005.54
2023-02-01T04:08:59.339Z,1005.47
2023-02-01T04:09:59.335Z,1005.48
2023-02-01T04:10:59.314Z,1005.51
2023-02-01T04:11:59.299Z,1005.54
2023-02-01T04:12:59.300Z,1005.49
2023-02-01T04:13:59.279Z,1005.50
2023-02-01T04:14:59.295Z,1005.49
2023-02-01T04:15:59.268Z,1005.41
2023-02-01T04:16:59.235Z,1005.47
2023-02-01T04:17:59.238Z,1005.50
2023-02-01T04:18:59.211Z,1005.50
2023-02-01T04:19:59.197Z,1005.50
2023-02-01T04:20:59.186Z,1005.49
2023-02-01T04:21:59.165Z,1005.47
2023-02-01T04:22:59.184Z,1005.53
2023-02-01T04:23:59.142Z,1005.56
2023-02-01T04:24:59.136Z,1005.50
2023-02-01T04:25:59.128Z,1005.47
2023-02-01T04:26:59.104Z,1005.50
2023-02-01T04:27:59.108Z,1005.44
2023-02-01T04:28:59.080Z,1005.50
2023-02-01T04:29:59.071Z,1005.49
2023-02-01T04:30:59.411Z,1005.40
2023-02-01T04:31:59.042Z,1005.42
2023-02-01T04:32:59.049Z,1005.45
2023-02-01T04:33:59.014Z,1005.53
2023-02-01T04:34:58.999Z,1005.53
2023-02-01T04:35:58.989Z,1005.62
2023-02-01T04:36:58.977Z,1005.63
2023-02-01T04:37:58.979Z,1005.66
2023-02-01T04:38:58.949Z,1005.63
2023-02-01T04:39:58.942Z,1005.62
2023-02-01T04:40:58.922Z,1005.68
2023-02-01T04:41:58.913Z,1005.69
2023-02-01T04:42:58.927Z,1005.63
2023-02-01T04:43:58.887Z,1005.66
2023-02-01T04:44:58.875Z,1005.59
2023-02-01T04:45:58.897Z,1005.62
2023-02-01T04:46:58.875Z,1005.63
2023-02-01T04:47:58.853Z,1005.58
2023-02-01T04:48:58.860Z,1005.60
2023-02-01T04:49:58.812Z,1005.61
2023-02-01T04:50:58.797Z,1005.52
2023-02-01T04:51:58.778Z,1005.59
2023-02-01T04:52:58.778Z,1005.63
2023-02-01T04:53:58.752Z,1005.61
2023-02-01T04:54:59.376Z,1005.55
2023-02-01T04:55:58.764Z,1005.67
2023-02-01T04:56:58.719Z,1005.71
2023-02-01T04:57:58.719Z,1005.71
2023-02-01T04:58:58.705Z,1005.69
2023-02-01T04:59:58.679Z,1005.68
2023-02-01T05:00:58.714Z,1005.61
2023-02-01T05:01:59.128Z,1005.67
2023-02-01T05:02:59.509Z,1005.61
2023-02-01T05:03:58.623Z,1005.61
2023-02-01T05:04:58.618Z,1005.58
2023-02-01T05:05:58.607Z,1005.54
2023-02-01T05:06:58.598Z,1005.51
2023-02-01T05:07:58.580Z,1005.51
2023-02-01T05:08:58.587Z,1005.44
2023-02-01T05:09:58.549Z,1005.51
2023-02-01T05:10:58.533Z,1005.50
2023-02-01T05:11:58.528Z,1005.41
2023-02-01T05:12:58.512Z,1005.41
2023-02-01T05:13:58.509Z,1005.45
2023-02-01T05:14:58.483Z,1005.45
2023-02-01T05:15:58.511Z,1005.47
2023-02-01T05:16:58.463Z,1005.36
2023-02-01T05:17:58.446Z,1005.42
2023-02-01T05:18:58.467Z,1005.35
2023-02-01T05:19:58.418Z,1005.43
2023-02-01T05:20:58.414Z,1005.45
2023-02-01T05:21:58.391Z,1005.40
2023-02-01T05:22:58.378Z,1005.36
2023-02-01T05:23:58.416Z,1005.36
2023-02-01T05:24:58.354Z,1005.40
2023-02-01T05:25:58.343Z,1005.39
2023-02-01T05:26:58.323Z,1005.31
2023-02-01T05:27:58.315Z,1005.33
2023-02-01T05:28:58.314Z,1005.25
2023-02-01T05:29:58.285Z,1005.26
2023-02-01T05:30:58.457Z,1005.20
2023-02-01T05:32:05.216Z,1005.27
2023-02-01T05:32:59.269Z,1005.32
2023-02-01T05:33:58.256Z,1005.31
2023-02-01T05:34:58.274Z,1005.28
2023-02-01T05:35:58.221Z,1005.31
2023-02-01T05:36:58.199Z,1005.26
2023-02-01T05:37:58.182Z,1005.29
2023-02-01T05:38:58.183Z,1005.37
2023-02-01T05:39:58.159Z,1005.35
2023-02-01T05:40:58.144Z,1005.33
2023-02-01T05:41:58.139Z,1005.30
2023-02-01T05:42:58.119Z,1005.35
2023-02-01T05:43:58.137Z,1005.41
2023-02-01T05:44:58.092Z,1005.41
2023-02-01T05:45:58.556Z,1005.37
2023-02-01T05:46:58.071Z,1005.36
2023-02-01T05:47:58.054Z,1005.34
2023-02-01T05:48:58.061Z,1005.33
2023-02-01T05:49:58.026Z,1005.33
2023-02-01T05:50:58.036Z,1005.32
2023-02-01T05:52:00.083Z,1005.29
2023-02-01T05:52:57.989Z,1005.27
2023-02-01T05:53:58.024Z,1005.20
2023-02-01T05:54:57.973Z,1005.28
2023-02-01T05:55:57.952Z,1005.28
2023-02-01T05:56:57.945Z,1005.25
2023-02-01T05:57:57.935Z,1005.28
2023-02-01T05:58:57.942Z,1005.27
2023-02-01T06:00:00.163Z,1005.25
2023-02-01T06:00:57.898Z,1005.23
2023-02-01T06:01:57.872Z,1005.24
2023-02-01T06:02:57.909Z,1005.17
2023-02-01T06:03:57.878Z,1005.25
2023-02-01T06:04:57.833Z,1005.22
2023-02-01T06:05:57.819Z,1005.26
2023-02-01T06:06:57.825Z,1005.25
2023-02-01T06:07:57.797Z,1005.25
2023-02-01T06:08:57.794Z,1005.24
2023-02-01T06:09:57.779Z,1005.19
2023-02-01T06:10:57.766Z,1005.24
2023-02-01T06:11:57.746Z,1005.26
2023-02-01T06:12:57.729Z,1005.23
2023-02-01T06:13:57.737Z,1005.23
2023-02-01T06:14:57.724Z,1005.17
2023-02-01T06:15:57.783Z,1005.10
2023-02-01T06:16:57.677Z,1005.10
2023-02-01T06:17:57.669Z,1005.04
2023-02-01T06:18:57.652Z,1005.01
2023-02-01T06:19:57.658Z,1005.07
2023-02-01T06:20:57.630Z,1005.02
2023-02-01T06:21:57.628Z,1005.03
2023-02-01T06:22:57.703Z,1005.04
2023-02-01T06:23:57.588Z,1005.01
2023-02-01T06:24:57.588Z,1005.03
2023-02-01T06:25:57.564Z,1005.10
2023-02-01T06:26:57.548Z,1005.11
2023-02-01T06:27:57.532Z,1005.11
2023-02-01T06:28:57.521Z,1005.15
2023-02-01T06:29:57.518Z,1005.14
2023-02-01T06:30:57.621Z,1005.11
2023-02-01T06:31:57.568Z,1005.16
2023-02-01T06:32:57.470Z,1005.18
2023-02-01T06:33:57.458Z,1005.16
2023-02-01T06:34:57.459Z,1005.28
2023-02-01T06:35:57.433Z,1005.33
2023-02-01T06:36:57.428Z,1005.32
2023-02-01T06:37:57.405Z,1005.35
2023-02-01T06:38:57.435Z,1005.40
2023-02-01T06:39:57.391Z,1005.47
2023-02-01T06:40:57.366Z,1005.43
2023-02-01T06:41:57.362Z,1005.35
2023-02-01T06:42:57.346Z,1005.41
2023-02-01T06:43:57.330Z,1005.44
2023-02-01T06:44:57.329Z,1005.36
2023-02-01T06:45:57.300Z,1005.36
2023-02-01T06:46:57.333Z,1005.43
2023-02-01T06:47:57.271Z,1005.49
2023-02-01T06:48:57.270Z,1005.51
2023-02-01T06:49:57.260Z,1005.54
2023-02-01T06:50:57.236Z,1005.54
2023-02-01T06:51:57.221Z,1005.55
2023-02-01T06:52:57.214Z,1005.52
2023-02-01T06:53:57.206Z,1005.65
2023-02-01T06:54:57.219Z,1005.63
2023-02-01T06:55:57.168Z,1005.56
2023-02-01T06:56:57.169Z,1005.54
2023-02-01T06:57:57.151Z,1005.48
2023-02-01T06:58:57.130Z,1005.52
2023-02-01T06:59:57.129Z,1005.49
2023-02-01T07:00:57.165Z,1005.53
2023-02-01T07:01:57.122Z,1005.49
2023-02-01T07:02:57.085Z,1005.51
2023-02-01T07:03:57.067Z,1005.45
2023-02-01T07:04:57.069Z,1005.47
2023-02-01T07:05:57.051Z,1005.47
2023-02-01T07:06:57.025Z,1005.49
2023-02-01T07:07:57.027Z,1005.51
2023-02-01T07:08:57.008Z,1005.52
2023-02-01T07:09:57.021Z,1005.49
2023-02-01T07:10:57.002Z,1005.64
2023-02-01T07:11:56.963Z,1005.51
2023-02-01T07:12:56.952Z,1005.49
2023-02-01T07:13:56.935Z,1005.50
2023-02-01T07:14:56.920Z,1005.46
2023-02-01T07:15:56.939Z,1005.43
2023-02-01T07:16:56.926Z,1005.36
2023-02-01T07:17:56.886Z,1005.30
2023-02-01T07:18:56.881Z,1005.29
2023-02-01T07:19:56.856Z,1005.29
2023-02-01T07:20:56.858Z,1005.24
2023-02-01T07:21:56.835Z,1005.20
2023-02-01T07:22:56.821Z,1005.21
2023-02-01T07:23:56.817Z,1005.27
2023-02-01T07:24:56.791Z,1005.23
2023-02-01T07:25:56.792Z,1005.28
2023-02-01T07:26:56.792Z,1005.29
2023-02-01T07:27:56.757Z,1005.23
2023-02-01T07:28:56.750Z,1005.27
2023-02-01T07:29:56.752Z,1005.31
2023-02-01T07:30:56.738Z,1005.29
2023-02-01T07:31:56.701Z,1005.34
2023-02-01T07:32:56.758Z,1005.31
2023-02-01T07:33:56.678Z,1005.35
2023-02-01T07:34:56.664Z,1005.41
2023-02-01T07:35:56.667Z,1005.49
2023-02-01T07:36:56.643Z,1005.54
2023-02-01T07:37:56.620Z,1005.55
2023-02-01T07:38:57.060Z,1005.52
2023-02-01T07:39:56.599Z,1005.57
2023-02-01T07:40:56.603Z,1005.57
2023-02-01T07:41:56.572Z,1005.59
2023-02-01T07:42:56.582Z,1005.56
2023-02-01T07:43:56.583Z,1005.62
2023-02-01T07:44:57.542Z,1005.64
2023-02-01T07:45:56.608Z,1005.68
2023-02-01T07:46:56.506Z,1005.75
2023-02-01T07:47:56.491Z,1005.72
2023-02-01T07:48:56.484Z,1005.76
2023-02-01T07:49:56.469Z,1005.81
2023-02-01T07:50:56.468Z,1005.84
2023-02-01T07:51:56.440Z,1005.86
2023-02-01T07:52:56.427Z,1005.78
2023-02-01T07:53:56.557Z,1005.78
2023-02-01T07:54:56.403Z,1005.84
2023-02-01T07:55:56.404Z,1005.78
2023-02-01T07:56:56.380Z,1005.80
2023-02-01T07:57:56.361Z,1005.82
2023-02-01T07:58:56.443Z,1005.83
2023-02-01T07:59:56.339Z,1005.80
2023-02-01T08:00:56.384Z,1005.86
2023-02-01T08:01:56.409Z,1005.87
2023-02-01T08:02:56.299Z,1005.93
2023-02-01T08:03:56.287Z,1005.96
2023-02-01T08:04:56.271Z,1005.93
2023-02-01T08:05:56.272Z,1005.94
2023-02-01T08:06:56.259Z,1005.95
2023-02-01T08:07:56.257Z,1005.94
2023-02-01T08:08:56.232Z,1005.97
2023-02-01T08:09:56.207Z,1005.97
2023-02-01T08:10:56.222Z,1005.82
2023-02-01T08:11:56.189Z,1005.88
2023-02-01T08:12:56.174Z,1005.82
2023-02-01T08:13:56.181Z,1005.96
2023-02-01T08:14:56.161Z,1005.89
2023-02-01T08:15:56.145Z,1005.92
2023-02-01T08:16:56.116Z,1005.95
2023-02-01T08:17:56.113Z,1005.98
2023-02-01T08:18:56.114Z,1006.01
2023-02-01T08:19:56.109Z,1005.98
2023-02-01T08:20:56.130Z,1006.01
2023-02-01T08:21:56.053Z,1006.04
2023-02-01T08:22:56.039Z,1006.10
2023-02-01T08:23:56.029Z,1006.02
2023-02-01T08:24:56.010Z,1006.07
2023-02-01T08:25:56.014Z,1006.11
2023-02-01T08:26:56.069Z,1006.13
2023-02-01T08:27:55.982Z,1006.19
2023-02-01T08:28:55.969Z,1006.16
2023-02-01T08:29:55.957Z,1006.15
2023-02-01T08:30:56.016Z,1006.13
2023-02-01T08:31:56.045Z,1006.06
2023-02-01T08:32:55.913Z,1006.07
2023-02-01T08:33:55.899Z,1006.11
2023-02-01T08:34:55.883Z,1006.10
2023-02-01T08:35:55.876Z,1006.15
2023-02-01T08:36:55.878Z,1006.11
2023-02-01T08:37:55.847Z,1006.10
2023-02-01T08:38:55.832Z,1006.15
2023-02-01T08:39:55.817Z,1006.11
2023-02-01T08:40:55.800Z,1006.24
2023-02-01T08:41:55.805Z,1006.21
2023-02-01T08:42:55.771Z,1006.22
2023-02-01T08:43:55.781Z,1006.18
2023-02-01T08:44:55.748Z,1006.21
2023-02-01T08:45:56.930Z,1006.20
2023-02-01T08:46:55.768Z,1006.20
2023-02-01T08:47:55.716Z,1006.24
2023-02-01T08:48:55.715Z,1006.24
2023-02-01T08:49:55.689Z,1006.24
2023-02-01T08:50:55.672Z,1006.24
2023-02-01T08:51:58.503Z,1006.30
2023-02-01T08:52:55.652Z,1006.26
2023-02-01T08:53:55.651Z,1006.29
2023-02-01T08:54:55.620Z,1006.27
2023-02-01T08:55:55.619Z,1006.25
2023-02-01T08:56:55.640Z,1006.24
2023-02-01T08:57:55.581Z,1006.28
2023-02-01T08:58:55.574Z,1006.29
2023-02-01T08:59:55.559Z,1006.31
2023-02-01T09:00:55.603Z,1006.35
2023-02-01T09:01:55.547Z,1006.31
2023-02-01T09:02:55.550Z,1006.24
2023-02-01T09:03:55.528Z,1006.30
2023-02-01T09:04:55.490Z,1006.34
2023-02-01T09:05:55.482Z,1006.34
2023-02-01T09:06:55.489Z,1006.36
2023-02-01T09:07:55.458Z,1006.37
2023-02-01T09:08:55.440Z,1006.32
2023-02-01T09:09:55.473Z,1006.33
2023-02-01T09:10:55.411Z,1006.30
2023-02-01T09:11:55.420Z,1006.34
2023-02-01T09:12:55.386Z,1006.36
2023-02-01T09:13:55.384Z,1006.34
2023-02-01T09:14:55.374Z,1006.32
2023-02-01T09:15:55.383Z,1006.27
2023-02-01T09:16:55.351Z,1006.33
2023-02-01T09:17:55.325Z,1006.35
2023-02-01T09:18:56.476Z,1006.31
2023-02-01T09:19:56.314Z,1006.32
2023-02-01T09:20:55.292Z,1006.34
2023-02-01T09:21:55.290Z,1006.28
2023-02-01T09:22:55.254Z,1006.27
2023-02-01T09:23:55.252Z,1006.21
2023-02-01T09:24:55.481Z,1006.34
2023-02-01T09:25:55.216Z,1006.37
2023-02-01T09:26:55.257Z,1006.22
2023-02-01T09:27:55.194Z,1006.27
2023-02-01T09:28:55.176Z,1006.31
2023-02-01T09:29:55.169Z,1006.36
2023-02-01T09:30:55.262Z,1006.48
2023-02-01T09:32:03.298Z,1006.45
2023-02-01T09:32:55.152Z,1006.49
2023-02-01T09:33:55.123Z,1006.52
2023-02-01T09:34:55.118Z,1006.49
2023-02-01T09:35:55.091Z,1006.53
2023-02-01T09:36:55.085Z,1006.55
2023-02-01T09:37:55.060Z,1006.53
2023-02-01T09:38:55.045Z,1006.51
2023-02-01T09:39:55.061Z,1006.54
2023-02-01T09:40:55.020Z,1006.58
2023-02-01T09:41:55.046Z,1006.63
2023-02-01T09:42:55.000Z,1006.59
2023-02-01T09:43:54.984Z,1006.61
2023-02-01T09:44:54.987Z,1006.64
2023-02-01T09:45:55.035Z,1006.66
2023-02-01T09:46:54.971Z,1006.67
2023-02-01T09:47:54.925Z,1006.71
2023-02-01T09:48:54.956Z,1006.76
2023-02-01T09:49:54.910Z,1006.80
2023-02-01T09:50:54.937Z,1006.82
2023-02-01T09:51:54.884Z,1006.79
2023-02-01T09:52:54.898Z,1006.78
2023-02-01T09:53:54.853Z,1006.80
2023-02-01T09:54:54.901Z,1006.81
2023-02-01T09:55:54.868Z,1006.79
2023-02-01T09:56:54.831Z,1006.90
2023-02-01T09:57:54.843Z,1006.86
2023-02-01T09:58:54.790Z,1006.86
2023-02-01T09:59:54.775Z,1006.79
2023-02-01T10:00:54.765Z,1006.80
2023-02-01T10:01:54.757Z,1006.83
2023-02-01T10:02:54.748Z,1006.84
2023-02-01T10:03:54.772Z,1006.79
2023-02-01T10:04:54.711Z,1006.81
2023-02-01T10:05:54.712Z,1006.71
2023-02-01T10:06:54.718Z,1006.75
2023-02-01T10:07:54.685Z,1006.68
2023-02-01T10:08:54.662Z,1006.72
2023-02-01T10:09:54.669Z,1006.69
2023-02-01T10:10:54.631Z,1006.72
2023-02-01T10:11:54.617Z,1006.66
2023-02-01T10:12:54.619Z,1006.64
2023-02-01T10:13:54.598Z,1006.71
2023-02-01T10:14:54.577Z,1006.71
2023-02-01T10:15:54.656Z,1006.72
2023-02-01T10:16:54.697Z,1006.71
2023-02-01T10:17:54.550Z,1006.62
2023-02-01T10:18:54.527Z,1006.70
2023-02-01T10:19:54.513Z,1006.66
2023-02-01T10:20:54.493Z,1006.71
2023-02-01T10:21:54.483Z,1006.71
2023-02-01T10:23:19.180Z,1006.66
2023-02-01T10:23:57.355Z,1006.68
2023-02-01T10:24:54.446Z,1006.69
2023-02-01T10:25:54.438Z,1006.63
2023-02-01T10:26:54.533Z,1006.65
2023-02-01T10:27:54.416Z,1006.69
2023-02-01T10:28:54.390Z,1006.63
2023-02-01T10:29:54.386Z,1006.61
2023-02-01T10:30:54.474Z,1006.66
2023-02-01T10:31:54.528Z,1006.50
2023-02-01T10:32:54.355Z,1006.54
2023-02-01T10:33:54.344Z,1006.51
2023-02-01T10:34:54.307Z,1006.53
2023-02-01T10:35:54.305Z,1006.52
2023-02-01T10:36:54.295Z,1006.52
2023-02-01T10:37:54.291Z,1006.54
2023-02-01T10:38:54.295Z,1006.50
2023-02-01T10:39:54.248Z,1006.48
2023-02-01T10:40:54.241Z,1006.47
2023-02-01T10:41:54.236Z,1006.43
2023-02-01T10:42:54.216Z,1006.38
2023-02-01T10:43:56.805Z,1006.33
2023-02-01T10:44:54.179Z,1006.35
2023-02-01T10:45:54.168Z,1006.24
2023-02-01T10:46:54.154Z,1006.20
2023-02-01T10:47:54.168Z,1006.21
2023-02-01T10:48:54.128Z,1006.25
2023-02-01T10:49:54.128Z,1006.23
2023-02-01T10:50:54.105Z,1006.24
2023-02-01T10:51:54.086Z,1006.18
2023-02-01T10:52:54.095Z,1006.17
2023-02-01T10:53:54.080Z,1006.19
2023-02-01T10:54:54.065Z,1006.16
2023-02-01T10:55:54.046Z,1006.22
2023-02-01T10:56:54.053Z,1006.18
2023-02-01T10:57:54.023Z,1006.19
2023-02-01T10:58:54.013Z,1006.14
2023-02-01T10:59:53.986Z,1006.16
2023-02-01T11:00:54.839Z,1006.12
2023-02-01T11:01:59.702Z,1006.17
2023-02-01T11:02:54.027Z,1006.08
2023-02-01T11:03:53.967Z,1006.12
2023-02-01T11:04:53.926Z,1006.08
2023-02-01T11:05:53.943Z,1006.11
2023-02-01T11:06:53.907Z,1006.11
2023-02-01T11:07:53.892Z,1006.07
2023-02-01T11:08:53.890Z,1006.15
2023-02-01T11:09:53.853Z,1006.13
2023-02-01T11:10:53.863Z,1006.08
2023-02-01T11:11:53.832Z,1006.06
2023-02-01T11:12:53.811Z,1006.04
2023-02-01T11:13:53.813Z,1006.08
2023-02-01T11:14:53.790Z,1006.01
2023-02-01T11:15:56.040Z,1006.00
2023-02-01T11:16:53.758Z,1006.14
2023-02-01T11:17:53.769Z,1006.10
2023-02-01T11:18:53.757Z,1006.01
2023-02-01T11:19:53.724Z,1006.03
2023-02-01T11:20:53.706Z,1006.05
2023-02-01T11:21:53.695Z,1006.07
2023-02-01T11:22:53.722Z,1006.05
2023-02-01T11:23:53.678Z,1006.02
2023-02-01T11:24:53.653Z,1005.99
2023-02-01T11:25:53.644Z,1005.96
2023-02-01T11:26:53.719Z,1005.99
2023-02-01T11:27:55.655Z,1006.00
2023-02-01T11:28:53.618Z,1005.92
2023-02-01T11:29:53.591Z,1005.94
2023-02-01T11:30:53.621Z,1005.95
2023-02-01T11:31:53.600Z,1005.93
2023-02-01T11:32:53.548Z,1005.95
2023-02-01T11:33:53.554Z,1005.92
2023-02-01T11:34:53.520Z,1005.96
2023-02-01T11:35:53.513Z,1005.94
2023-02-01T11:36:53.494Z,1005.98
2023-02-01T11:37:53.482Z,1005.99
2023-02-01T11:38:53.484Z,1005.97
2023-02-01T11:39:53.457Z,1005.95
2023-02-01T11:40:53.456Z,1006.01
2023-02-01T11:41:53.429Z,1005.93
2023-02-01T11:42:53.495Z,1005.97
2023-02-01T11:43:53.482Z,1005.94
2023-02-01T11:44:53.392Z,1005.86
2023-02-01T11:45:53.378Z,1005.91
2023-02-01T11:46:53.435Z,1005.86
2023-02-01T11:47:53.355Z,1005.81
2023-02-01T11:48:53.349Z,1005.87
2023-02-01T11:49:53.326Z,1005.86
2023-02-01T11:50:53.317Z,1005.79
2023-02-01T11:51:53.311Z,1005.88
2023-02-01T11:52:53.292Z,1005.83
2023-02-01T11:53:53.303Z,1005.79
2023-02-01T11:54:53.262Z,1005.86
2023-02-01T11:55:53.273Z,1005.78
2023-02-01T11:56:53.234Z,1005.85
2023-02-01T11:57:53.219Z,1005.83
2023-02-01T11:58:53.243Z,1005.77
2023-02-01T11:59:56.712Z,1005.75
2023-02-01T12:00:53.189Z,1005.73
2023-02-01T12:01:53.193Z,1005.73
2023-02-01T12:02:53.188Z,1005.73
2023-02-01T12:03:53.146Z,1005.74
2023-02-01T12:04:53.147Z,1005.69